Time;durP1;ratioP1;P1;durP2;ratioP2;P2;SDS_P1;SDS_P2;PMS_P1;PMS_P2;Temp;Humidity;BMP_temperature;BMP_pressure;BME280_temperature;BME280_humidity;BME280_pressure;Samples;Min_cycle;Max_cycle;Signal;HPM_P1;HPM_P2
2024/04/16 00:02:14;;;;;;;;;;;;;;;5.99;100.00;99475.00;5535201;25;19927;-70
2024/04/16 00:04:39;;;;;;;;;;;;;;;5.98;100.00;99473.34;5530569;25;19976;-71
2024/04/16 00:07:04;;;;;;;;;;;;;;;5.89;100.00;99475.13;5534813;25;19927;-69
2024/04/16 00:09:30;;;;;;;;;;;;;;;5.83;100.00;99466.06;5562338;25;19937;-70
2024/04/16 00:11:55;;;;;;;;;;;;;;;5.84;100.00;99473.00;5534041;25;19927;-71
2024/04/16 00:14:20;;;;;;;;;;;;;;;5.80;100.00;99471.66;5559852;25;19996;-70
2024/04/16 00:16:46;;;;;;;;;;;;;;;5.87;100.00;99477.13;5556634;25;19955;-69
2024/04/16 00:19:11;;;;;;;;;;;;;;;5.88;100.00;99476.94;5545205;25;19936;-70
2024/04/16 00:21:36;;;;;;;;;;;;;;;5.88;100.00;99474.31;5530297;25;19934;-71
2024/04/16 00:24:02;;;;;;;;;;;;;;;5.90;100.00;99477.66;5510089;25;19930;-71
2024/04/16 00:26:27;;;;;;;;;;;;;;;5.92;100.00;99474.00;5516593;25;20508;-70
2024/04/16 00:28:52;;;;;;;;;;;;;;;5.88;100.00;99478.78;5496929;26;19927;-70
2024/04/16 00:31:18;;;;;;;;;;;;;;;5.87;100.00;99474.47;5537114;25;19927;-70
2024/04/16 00:33:43;;;;;;;;;;;;;;;5.82;100.00;99469.69;5553882;25;19931;-69
2024/04/16 00:36:09;;;;;;;;;;;;;;;5.81;100.00;99473.31;5554892;25;19934;-71
2024/04/16 00:38:34;;;;;;;;;;;;;;;5.82;100.00;99474.97;5562936;25;20089;-70
2024/04/16 00:41:00;;;;;;;;;;;;;;;5.84;100.00;99467.69;5545374;25;19938;-69
2024/04/16 00:43:25;;;;;;;;;;;;;;;5.85;100.00;99477.28;5544796;25;20275;-70
2024/04/16 00:45:54;;;;;;;;;;;;;;;5.87;100.00;99472.66;5526356;25;20251;-71
2024/04/16 00:48:23;;;;;;;;;;;;;;;5.83;100.00;99471.34;5548575;25;19927;-70
2024/04/16 00:50:49;;;;;;;;;;;;;;;5.78;100.00;99473.66;5551104;25;20000;-68
2024/04/16 00:53:14;;;;;;;;;;;;;;;5.76;100.00;99477.41;5525106;26;20371;-71
2024/04/16 00:55:40;;;;;;;;;;;;;;;5.74;100.00;99477.56;5528149;25;20259;-72
2024/04/16 00:58:06;;;;;;;;;;;;;;;5.70;100.00;99472.78;5536211;25;20279;-70
2024/04/16 01:00:31;;;;;;;;;;;;;;;5.68;100.00;99477.41;5558411;25;19991;-70
2024/04/16 01:02:57;;;;;;;;;;;;;;;5.73;100.00;99475.94;5549292;25;19927;-70
2024/04/16 01:05:22;;;;;;;;;;;;;;;5.73;100.00;99470.66;5538401;25;19935;-71
2024/04/16 01:07:47;;;;;;;;;;;;;;;5.72;100.00;99479.56;5532048;25;19934;-70
2024/04/16 01:10:13;;;;;;;;;;;;;;;5.72;100.00;99478.72;5549442;25;19932;-70
2024/04/16 01:12:41;;;;;;;;;;;;;;;5.68;100.00;99478.22;5536638;25;19928;-70
2024/04/16 01:15:07;;;;;;;;;;;;;;;5.69;100.00;99479.88;5563670;25;19926;-69
2024/04/16 01:17:32;;;;;;;;;;;;;;;5.73;100.00;99481.22;5509736;26;19938;-69
2024/04/16 01:19:58;;;;;;;;;;;;;;;5.67;100.00;99481.88;5539347;25;19935;-68
2024/04/16 01:22:23;;;;;;;;;;;;;;;5.67;100.00;99481.88;5543382;25;20386;-71
2024/04/16 01:24:48;;;;;;;;;;;;;;;5.66;100.00;99485.50;5533684;25;19975;-71
2024/04/16 01:27:14;;;;;;;;;;;;;;;5.67;100.00;99481.03;5541475;25;19927;-69
2024/04/16 01:29:39;;;;;;;;;;;;;;;5.72;100.00;99478.72;5537777;25;20022;-70
2024/04/16 01:32:04;;;;;;;;;;;;;;;5.73;100.00;99481.22;5556200;25;20011;-70
2024/04/16 01:34:30;;;;;;;;;;;;;;;5.75;100.00;99484.50;5537564;25;19935;-70
2024/04/16 01:36:55;;;;;;;;;;;;;;;5.71;100.00;99477.91;5552637;25;19995;-69
2024/04/16 01:39:20;;;;;;;;;;;;;;;5.76;100.00;99472.97;5529125;26;19936;-68
2024/04/16 01:41:46;;;;;;;;;;;;;;;5.81;100.00;99483.88;5504072;25;19938;-71
2024/04/16 01:44:11;;;;;;;;;;;;;;;5.82;100.00;99485.53;5557632;25;19932;-70
2024/04/16 01:46:36;;;;;;;;;;;;;;;5.83;100.00;99481.09;5529161;25;19933;-70
2024/04/16 01:49:02;;;;;;;;;;;;;;;5.85;100.00;99487.84;5552617;25;19927;-70
2024/04/16 01:51:27;;;;;;;;;;;;;;;5.88;100.00;99490.16;5539570;25;19927;-72
2024/04/16 01:53:52;;;;;;;;;;;;;;;5.89;100.00;99483.06;5528895;25;19927;-72
2024/04/16 01:56:18;;;;;;;;;;;;;;;5.92;100.00;99479.28;5552776;25;20293;-71
2024/04/16 01:58:43;;;;;;;;;;;;;;;5.94;100.00;99483.41;5549960;25;19934;-71
2024/04/16 02:01:08;;;;;;;;;;;;;;;5.97;100.00;99484.91;5564635;25;19938;-71
2024/04/16 02:03:34;;;;;;;;;;;;;;;5.97;100.00;99483.09;5508079;25;20445;-69
2024/04/16 02:06:02;;;;;;;;;;;;;;;6.00;100.00;99488.03;5538863;25;19938;-71
2024/04/16 02:08:28;;;;;;;;;;;;;;;6.04;100.00;99477.97;5541093;25;19926;-71
2024/04/16 02:10:53;;;;;;;;;;;;;;;6.02;100.00;99486.06;5533441;25;19927;-70
2024/04/16 02:13:19;;;;;;;;;;;;;;;6.05;100.00;99485.72;5538908;25;20386;-69
2024/04/16 02:15:44;;;;;;;;;;;;;;;6.07;100.00;99481.13;5550817;25;19995;-71
2024/04/16 02:18:10;;;;;;;;;;;;;;;6.08;100.00;99493.34;5531766;25;19927;-70
2024/04/16 02:20:55;;;;;;;;;;;;;;;6.12;100.00;99491.22;5527462;25;19934;-69
2024/04/16 02:23:20;;;;;;;;;;;;;;;6.10;100.00;99498.47;5546609;25;19934;-71
2024/04/16 02:25:49;;;;;;;;;;;;;;;6.11;100.00;99495.66;5542580;25;19938;-72
2024/04/16 02:28:14;;;;;;;;;;;;;;;6.07;100.00;99493.50;5543106;25;19934;-70
2024/04/16 02:30:40;;;;;;;;;;;;;;;6.01;100.00;99499.44;5547254;25;19927;-70
2024/04/16 02:33:06;;;;;;;;;;;;;;;5.99;100.00;99498.78;5544029;25;19947;-69
2024/04/16 02:35:32;;;;;;;;;;;;;;;5.90;100.00;99498.78;5534477;25;19931;-69
2024/04/16 02:38:00;;;;;;;;;;;;;;;5.88;100.00;99508.66;5538055;25;19928;-70
2024/04/16 02:40:25;;;;;;;;;;;;;;;5.84;100.00;99504.69;5548864;25;19931;-69
2024/04/16 02:42:50;;;;;;;;;;;;;;;5.86;100.00;99513.28;5556698;25;20363;-71
2024/04/16 02:45:16;;;;;;;;;;;;;;;5.85;100.00;99510.81;5544325;25;20382;-70
2024/04/16 02:47:41;;;;;;;;;;;;;;;5.84;100.00;99499.41;5533557;25;19995;-69
2024/04/16 02:50:06;;;;;;;;;;;;;;;5.83;100.00;99500.41;5527384;26;19928;-72
2024/04/16 02:52:32;;;;;;;;;;;;;;;5.85;100.00;99509.00;5498000;26;19928;-72
2024/04/16 02:54:57;;;;;;;;;;;;;;;5.84;100.00;99509.97;5499961;25;19933;-68
2024/04/16 02:57:22;;;;;;;;;;;;;;;5.85;100.00;99509.00;5526349;25;19928;-71
2024/04/16 02:59:48;;;;;;;;;;;;;;;5.88;100.00;99516.59;5539974;25;19954;-69
2024/04/16 03:02:14;;;;;;;;;;;;;;;5.85;100.00;99511.63;5565962;25;19927;-70
2024/04/16 03:04:39;;;;;;;;;;;;;;;5.86;100.00;99508.00;5515846;25;19927;-71
2024/04/16 03:07:05;;;;;;;;;;;;;;;5.86;100.00;99509.81;5523087;26;19928;-71
2024/04/16 03:09:30;;;;;;;;;;;;;;;5.86;100.00;99515.09;5566499;25;19959;-69
2024/04/16 03:11:55;;;;;;;;;;;;;;;5.89;100.00;99512.13;5526094;26;19953;-72
2024/04/16 03:14:21;;;;;;;;;;;;;;;5.94;100.00;99519.59;5517556;26;19927;-71
2024/04/16 03:16:46;;;;;;;;;;;;;;;5.98;100.00;99520.91;5522110;25;19934;-67
2024/04/16 03:19:11;;;;;;;;;;;;;;;6.01;100.00;99523.22;5575669;25;19927;-68
2024/04/16 03:21:36;;;;;;;;;;;;;;;6.04;100.00;99528.19;5545213;25;19926;-72
2024/04/16 03:24:02;;;;;;;;;;;;;;;5.99;100.00;99523.41;5544635;25;19935;-72
2024/04/16 03:26:28;;;;;;;;;;;;;;;5.98;100.00;99531.50;5511307;26;19939;-72
2024/04/16 03:28:53;;;;;;;;;;;;;;;5.99;100.00;99518.09;5526146;26;19931;-71
2024/04/16 03:31:19;;;;;;;;;;;;;;;6.02;100.00;99519.59;5536426;25;19938;-70
2024/04/16 03:33:44;;;;;;;;;;;;;;;6.04;100.00;99520.25;5526383;26;20269;-70
2024/04/16 03:36:09;;;;;;;;;;;;;;;6.07;100.00;99527.84;5523392;25;19938;-70
2024/04/16 03:38:35;;;;;;;;;;;;;;;6.08;100.00;99534.81;5551723;25;19938;-70
2024/04/16 03:41:01;;;;;;;;;;;;;;;6.10;100.00;99532.84;5533321;25;20374;-70
2024/04/16 03:43:27;;;;;;;;;;;;;;;6.12;100.00;99529.03;5531715;25;19996;-72
2024/04/16 03:45:56;;;;;;;;;;;;;;;6.15;100.00;99526.06;5531026;25;19927;-69
2024/04/16 03:48:22;;;;;;;;;;;;;;;6.13;100.00;99524.59;5530088;25;19959;-71
2024/04/16 03:50:47;;;;;;;;;;;;;;;6.09;100.00;99531.19;5554477;25;19955;-72
2024/04/16 03:53:12;;;;;;;;;;;;;;;6.07;100.00;99536.66;5536955;25;19934;-70
2024/04/16 03:55:38;;;;;;;;;;;;;;;6.10;100.00;99535.50;5529777;25;19953;-70
2024/04/16 03:58:03;;;;;;;;;;;;;;;6.12;100.00;99539.63;5537727;25;19933;-71
2024/04/16 04:03:17;;;;;;;;;;;;;;;6.13;100.00;99551.00;5540279;25;19927;-68
2024/04/16 04:05:43;;;;;;;;;;;;;;;6.14;100.00;99545.56;5550205;25;20699;-71
2024/04/16 04:08:08;;;;;;;;;;;;;;;6.11;100.00;99559.13;5554896;25;19934;-68
2024/04/16 04:10:34;;;;;;;;;;;;;;;6.13;100.00;99554.47;5498198;26;19933;-71
2024/04/16 04:12:59;;;;;;;;;;;;;;;6.12;100.00;99555.47;5542009;25;19994;-70
2024/04/16 04:15:25;;;;;;;;;;;;;;;6.10;100.00;99557.47;5545873;25;19995;-72
2024/04/16 04:17:50;;;;;;;;;;;;;;;6.16;100.00;99558.63;5545314;25;19927;-71
2024/04/16 04:20:15;;;;;;;;;;;;;;;6.23;100.00;99556.97;5552681;25;19935;-73
2024/04/16 04:22:41;;;;;;;;;;;;;;;6.30;100.00;99565.88;5514465;26;19932;-70
2024/04/16 04:25:06;;;;;;;;;;;;;;;6.33;100.00;99565.56;5559560;25;19927;-72
2024/04/16 04:27:31;;;;;;;;;;;;;;;6.33;100.00;99577.94;5514950;25;19938;-72
2024/04/16 04:29:57;;;;;;;;;;;;;;;6.25;100.00;99573.50;5512897;25;19938;-69
2024/04/16 04:32:22;;;;;;;;;;;;;;;6.29;100.00;99572.16;5550896;25;19977;-69
2024/04/16 04:34:50;;;;;;;;;;;;;;;6.28;100.00;99582.91;5544309;25;19930;-71
2024/04/16 04:37:16;;;;;;;;;;;;;;;6.28;100.00;99581.09;5550600;25;19995;-72
2024/04/16 04:39:41;;;;;;;;;;;;;;;6.26;100.00;99580.44;5532036;25;20383;-74
2024/04/16 04:42:07;;;;;;;;;;;;;;;6.26;100.00;99585.72;5546690;25;19995;-73
2024/04/16 04:44:33;;;;;;;;;;;;;;;6.27;100.00;99584.72;5535615;25;19934;-71
2024/04/16 04:46:58;;;;;;;;;;;;;;;6.32;100.00;99587.69;5527790;25;19938;-73
2024/04/16 04:49:24;;;;;;;;;;;;;;;6.33;100.00;99599.94;5535246;25;20378;-68
2024/04/16 04:51:49;;;;;;;;;;;;;;;6.28;100.00;99596.94;5529117;26;19995;-69
2024/04/16 04:54:15;;;;;;;;;;;;;;;6.29;100.00;99592.50;5501697;25;19938;-73
2024/04/16 04:56:40;;;;;;;;;;;;;;;6.26;100.00;99591.00;5538433;25;19934;-74
2024/04/16 04:59:05;;;;;;;;;;;;;;;6.29;100.00;99592.50;5498814;25;19928;-72
2024/04/16 05:01:31;;;;;;;;;;;;;;;6.33;100.00;99602.56;5549760;25;19928;-70
2024/04/16 05:03:56;;;;;;;;;;;;;;;6.35;100.00;99600.59;5536059;25;19926;-70
2024/04/16 05:06:22;;;;;;;;;;;;;;;6.42;100.00;99604.25;5542974;25;20334;-74
2024/04/16 05:08:47;;;;;;;;;;;;;;;6.45;100.00;99597.81;5499341;26;19933;-72
2024/04/16 05:11:14;;;;;;;;;;;;;;;6.49;100.00;99594.66;5527389;26;19980;-68
2024/04/16 05:13:39;;;;;;;;;;;;;;;6.57;100.00;99600.94;5535842;25;19927;-70
2024/04/16 05:16:04;;;;;;;;;;;;;;;6.66;100.00;99599.97;5526956;25;19931;-70
2024/04/16 05:18:30;;;;;;;;;;;;;;;6.79;100.00;99595.00;5493629;25;19934;-69
2024/04/16 05:20:58;;;;;;;;;;;;;;;6.92;100.00;99594.47;5558536;25;19960;-69
2024/04/16 05:23:23;;;;;;;;;;;;;;;7.03;100.00;99602.09;5469520;25;19928;-71
2024/04/16 05:25:52;;;;;;;;;;;;;;;7.05;100.00;99600.91;5537488;25;20373;-70
2024/04/16 05:28:18;;;;;;;;;;;;;;;7.09;100.00;99604.88;5553921;25;19963;-70
2024/04/16 05:30:43;;;;;;;;;;;;;;;7.18;100.00;99594.25;5545636;25;19934;-70
2024/04/16 05:33:09;;;;;;;;;;;;;;;7.25;100.00;99600.56;5527863;25;19968;-69
2024/04/16 05:35:34;;;;;;;;;;;;;;;7.25;100.00;99596.09;5501814;25;20008;-69
2024/04/16 05:38:00;;;;;;;;;;;;;;;7.31;100.00;99595.41;5519122;25;19927;-70
2024/04/16 05:40:25;;;;;;;;;;;;;;;7.49;100.00;99592.50;5529249;25;19943;-74
2024/04/16 05:42:51;;;;;;;;;;;;;;;7.57;100.00;99594.31;5543103;25;19927;-69
2024/04/16 05:45:16;;;;;;;;;;;;;;;7.64;99.16;99585.50;5537995;25;19931;-74
2024/04/16 05:47:41;;;;;;;;;;;;;;;7.56;98.53;99588.19;5546216;25;19927;-69
2024/04/16 05:50:07;;;;;;;;;;;;;;;7.53;99.57;99593.84;5546257;25;20496;-68
2024/04/16 05:52:32;;;;;;;;;;;;;;;7.72;100.00;99585.47;5514467;25;19934;-69
2024/04/16 05:54:58;;;;;;;;;;;;;;;7.92;100.00;99595.66;5569432;25;19933;-70
2024/04/16 05:57:23;;;;;;;;;;;;;;;7.92;96.44;99593.81;5497963;26;20043;-69
2024/04/16 05:59:49;;;;;;;;;;;;;;;7.90;97.12;99592.34;5526683;26;19928;-69
2024/04/16 06:02:14;;;;;;;;;;;;;;;8.03;97.54;99590.78;5494189;26;19954;-70
2024/04/16 06:04:39;;;;;;;;;;;;;;;8.17;97.36;99586.56;5527042;26;19927;-71
2024/04/16 06:07:04;;;;;;;;;;;;;;;8.38;97.10;99586.78;5495224;26;20267;-71
2024/04/16 06:09:30;;;;;;;;;;;;;;;8.61;96.52;99583.28;5494851;26;20371;-71
2024/04/16 06:11:55;;;;;;;;;;;;;;;8.79;95.78;99591.75;5493536;26;20349;-70
2024/04/16 06:14:20;;;;;;;;;;;;;;;8.73;93.08;99587.16;5526354;26;19927;-69
2024/04/16 06:16:46;;;;;;;;;;;;;;;8.42;92.65;99591.72;5526617;26;19942;-68
2024/04/16 06:19:11;;;;;;;;;;;;;;;8.08;93.41;99595.53;5526012;26;19934;-68
2024/04/16 06:21:36;;;;;;;;;;;;;;;7.88;96.31;99589.06;5525980;26;19928;-68
2024/04/16 06:24:02;;;;;;;;;;;;;;;7.86;97.83;99588.41;5527780;26;19927;-70
2024/04/16 06:26:27;;;;;;;;;;;;;;;7.73;98.66;99592.41;5526723;26;19939;-68
2024/04/16 06:28:53;;;;;;;;;;;;;;;7.57;99.84;99583.72;5492651;26;19927;-72
2024/04/16 06:31:18;;;;;;;;;;;;;;;7.49;100.00;99587.22;5493549;26;19934;-71
2024/04/16 06:33:43;;;;;;;;;;;;;;;7.40;100.00;99583.78;5526678;26;19934;-69
2024/04/16 06:36:10;;;;;;;;;;;;;;;7.45;100.00;99589.38;5526130;26;19939;-69
2024/04/16 06:38:35;;;;;;;;;;;;;;;7.48;100.00;99585.56;5526711;26;19928;-69
2024/04/16 06:41:00;;;;;;;;;;;;;;;7.52;100.00;99586.91;5527574;26;19934;-66
2024/04/16 06:43:26;;;;;;;;;;;;;;;7.54;100.00;99595.50;5493672;26;20441;-69
2024/04/16 06:45:52;;;;;;;;;;;;;;;7.55;100.00;99591.84;5526369;26;19931;-69
2024/04/16 06:48:18;;;;;;;;;;;;;;;7.76;100.00;99586.78;5493953;26;19928;-71
2024/04/16 06:50:46;;;;;;;;;;;;;;;8.02;100.00;99593.59;5493722;26;19935;-68
2024/04/16 06:53:12;;;;;;;;;;;;;;;8.22;100.00;99593.97;5526578;26;19928;-69
2024/04/16 06:55:37;;;;;;;;;;;;;;;8.21;99.68;99595.81;5494893;26;20252;-70
2024/04/16 06:58:02;;;;;;;;;;;;;;;8.11;97.99;99592.56;5463669;26;20367;-70
2024/04/16 07:00:28;;;;;;;;;;;;;;;7.94;98.47;99602.44;5525955;26;20381;-69
2024/04/16 07:02:54;;;;;;;;;;;;;;;7.76;99.14;99597.38;5463309;26;19938;-70
2024/04/16 07:05:19;;;;;;;;;;;;;;;7.61;99.90;99607.06;5525832;26;20282;-70
2024/04/16 07:07:45;;;;;;;;;;;;;;;7.50;100.00;99615.34;5499509;25;19927;-69
2024/04/16 07:10:11;;;;;;;;;;;;;;;7.47;100.00;99613.06;5562709;25;20288;-71
2024/04/16 07:12:36;;;;;;;;;;;;;;;7.35;100.00;99619.72;5563919;25;19935;-71
2024/04/16 07:15:02;;;;;;;;;;;;;;;7.15;100.00;99628.03;5563479;25;20378;-71
2024/04/16 07:17:30;;;;;;;;;;;;;;;6.99;100.00;99627.25;5499783;25;19933;-71
2024/04/16 07:19:56;;;;;;;;;;;;;;;6.92;100.00;99632.34;5563270;25;19939;-72
2024/04/16 07:22:22;;;;;;;;;;;;;;;6.95;100.00;99631.22;5563337;25;19927;-70
2024/04/16 07:24:49;;;;;;;;;;;;;;;6.95;100.00;99629.41;5561816;25;20279;-69
2024/04/16 07:27:15;;;;;;;;;;;;;;;6.73;100.00;99633.53;5561351;25;19926;-72
2024/04/16 07:29:40;;;;;;;;;;;;;;;6.68;100.00;99635.84;5560617;25;19927;-70
2024/04/16 07:32:05;;;;;;;;;;;;;;;6.70;100.00;99630.41;5560065;25;19931;-70
2024/04/16 07:34:31;;;;;;;;;;;;;;;6.87;100.00;99629.38;5527040;25;19934;-70
2024/04/16 07:36:57;;;;;;;;;;;;;;;7.01;100.00;99639.31;5559717;25;19927;-71
2024/04/16 07:39:22;;;;;;;;;;;;;;;7.14;100.00;99631.66;5561683;25;19931;-71
2024/04/16 07:41:48;;;;;;;;;;;;;;;7.23;100.00;99637.81;5563329;25;19974;-72
2024/04/16 07:44:13;;;;;;;;;;;;;;;7.27;100.00;99635.63;5530975;25;19938;-70
2024/04/16 07:46:38;;;;;;;;;;;;;;;7.31;100.00;99642.25;5534663;25;19943;-69
2024/04/16 07:49:04;;;;;;;;;;;;;;;7.22;100.00;99645.88;5493095;26;19934;-71
2024/04/16 07:51:29;;;;;;;;;;;;;;;7.19;100.00;99644.41;5525715;26;19995;-70
2024/04/16 07:53:54;;;;;;;;;;;;;;;7.19;100.00;99638.28;5492761;26;19935;-68
2024/04/16 07:56:20;;;;;;;;;;;;;;;7.30;100.00;99640.59;5523553;26;19927;-70
2024/04/16 07:58:45;;;;;;;;;;;;;;;7.46;100.00;99637.88;5525842;26;19935;-74
2024/04/16 08:01:12;;;;;;;;;;;;;;;7.64;100.00;99642.97;5526151;26;19927;-69
2024/04/16 08:03:37;;;;;;;;;;;;;;;7.71;100.00;99641.28;5525114;26;19931;-70
2024/04/16 08:06:03;;;;;;;;;;;;;;;7.62;100.00;99635.19;5493239;26;20815;-70
2024/04/16 08:08:28;;;;;;;;;;;;;;;7.54;100.00;99637.88;5525190;26;19936;-70
2024/04/16 08:10:54;;;;;;;;;;;;;;;7.62;100.00;99644.97;5524896;26;19935;-71
2024/04/16 08:13:19;;;;;;;;;;;;;;;7.77;100.00;99644.06;5525271;26;19995;-69
2024/04/16 08:15:44;;;;;;;;;;;;;;;7.96;100.00;99642.84;5527749;26;19966;-69
2024/04/16 08:18:10;;;;;;;;;;;;;;;8.08;100.00;99652.06;5506905;26;20375;-69
2024/04/16 08:20:35;;;;;;;;;;;;;;;7.98;100.00;99651.44;5498657;26;19928;-67
2024/04/16 08:23:01;;;;;;;;;;;;;;;7.95;100.00;99651.81;5524806;26;19935;-68
2024/04/16 08:25:26;;;;;;;;;;;;;;;7.88;100.00;99647.38;5523345;26;19927;-70
2024/04/16 08:27:52;;;;;;;;;;;;;;;7.98;100.00;99650.63;5522224;26;20359;-69
2024/04/16 08:30:17;;;;;;;;;;;;;;;8.11;100.00;99647.44;5524995;26;19938;-67
2024/04/16 08:32:45;;;;;;;;;;;;;;;8.23;100.00;99659.28;5523000;26;19943;-70
2024/04/16 08:35:12;;;;;;;;;;;;;;;8.28;100.00;99660.41;5524349;26;19931;-68
2024/04/16 08:37:37;;;;;;;;;;;;;;;8.25;98.18;99652.81;5531381;26;19932;-68
2024/04/16 08:40:03;;;;;;;;;;;;;;;8.38;99.02;99662.88;5504291;26;19938;-65
2024/04/16 08:42:29;;;;;;;;;;;;;;;8.58;97.62;99655.28;5504280;26;20013;-69
2024/04/16 08:44:55;;;;;;;;;;;;;;;8.77;96.84;99646.03;5528887;26;19931;-69
2024/04/16 08:47:22;;;;;;;;;;;;;;;8.99;96.06;99648.66;5533006;26;19927;-69
2024/04/16 08:49:48;;;;;;;;;;;;;;;8.94;93.85;99648.34;5498014;26;19928;-70
2024/04/16 08:52:13;;;;;;;;;;;;;;;8.70;93.79;99651.22;5527493;26;20366;-68
2024/04/16 08:54:39;;;;;;;;;;;;;;;8.31;94.12;99654.75;5529518;26;20390;-70
2024/04/16 08:57:06;;;;;;;;;;;;;;;8.15;95.76;99662.00;5533917;26;19960;-69
2024/04/16 08:59:31;;;;;;;;;;;;;;;8.11;96.39;99661.53;5534336;26;19935;-67
2024/04/16 09:01:58;;;;;;;;;;;;;;;8.18;95.54;99666.94;5531422;26;19928;-68
2024/04/16 09:04:23;;;;;;;;;;;;;;;8.30;96.25;99666.38;5494709;26;19959;-68
2024/04/16 09:06:51;;;;;;;;;;;;;;;8.52;93.53;99669.25;5524491;26;20262;-68
2024/04/16 09:09:16;;;;;;;;;;;;;;;8.89;93.73;99674.63;5524076;26;19927;-69
2024/04/16 09:11:43;;;;;;;;;;;;;;;9.22;89.82;99671.69;5491506;26;19935;-68
2024/04/16 09:14:09;;;;;;;;;;;;;;;9.48;89.91;99677.41;5494820;26;19931;-69
2024/04/16 09:16:35;;;;;;;;;;;;;;;9.42;86.07;99672.81;5532903;26;19938;-66
2024/04/16 09:19:07;;;;;;;;;;;;;;;9.37;87.49;99677.88;5538948;26;19935;-68
2024/04/16 09:21:33;;;;;;;;;;;;;;;9.34;87.88;99678.22;5534215;26;19961;-69
2024/04/16 09:23:59;;;;;;;;;;;;;;;9.21;87.72;99670.03;5523692;26;19931;-68
2024/04/16 09:26:24;;;;;;;;;;;;;;;9.07;86.75;99678.81;5524032;26;20390;-70
2024/04/16 09:28:49;;;;;;;;;;;;;;;9.02;88.46;99682.00;5524211;26;19931;-67
2024/04/16 09:31:15;;;;;;;;;;;;;;;8.90;85.62;99681.59;5524068;26;19927;-70
2024/04/16 09:33:41;;;;;;;;;;;;;;;8.78;86.27;99685.66;5525265;26;20276;-67
2024/04/16 09:36:16;;;;;;;;;;;;;;;8.75;86.32;99690.50;5464038;26;20282;-67
2024/04/16 09:38:45;;;;;;;;;;;;;;;8.67;85.65;99684.28;5527347;26;19927;-69
2024/04/16 09:41:11;;;;;;;;;;;;;;;8.82;87.61;99688.78;5527317;26;19927;-68
2024/04/16 09:43:41;;;;;;;;;;;;;;;8.93;87.48;99689.19;5494764;26;19956;-69
2024/04/16 09:46:08;;;;;;;;;;;;;;;8.87;85.89;99697.03;5494757;26;19935;-70
2024/04/16 09:48:34;;;;;;;;;;;;;;;8.86;86.89;99706.84;5529778;26;20399;-68
2024/04/16 09:51:03;;;;;;;;;;;;;;;8.95;87.35;99695.16;5528437;26;19928;-69
2024/04/16 09:53:29;;;;;;;;;;;;;;;8.90;84.67;99700.16;5494694;26;20290;-71
2024/04/16 09:55:56;;;;;;;;;;;;;;;8.84;84.35;99690.25;5527644;26;19932;-68
2024/04/16 09:58:23;;;;;;;;;;;;;;;8.89;84.54;99693.22;5492983;26;20020;-70
2024/04/16 10:00:49;;;;;;;;;;;;;;;9.00;84.77;99694.63;5525227;26;19927;-66
2024/04/16 10:03:15;;;;;;;;;;;;;;;9.17;84.33;99696.13;5525827;26;19927;-66
2024/04/16 10:05:40;;;;;;;;;;;;;;;9.25;82.41;99697.88;5493170;26;19928;-75
2024/04/16 10:08:06;;;;;;;;;;;;;;;9.33;83.40;99689.88;5526461;26;19936;-71
2024/04/16 10:10:31;;;;;;;;;;;;;;;9.43;80.79;99695.75;5494359;26;19995;-72
2024/04/16 10:12:57;;;;;;;;;;;;;;;9.26;80.20;99688.94;5525841;26;19936;-71
2024/04/16 10:15:22;;;;;;;;;;;;;;;9.23;80.84;99702.56;5492299;26;20374;-71
2024/04/16 10:17:51;;;;;;;;;;;;;;;9.23;81.26;99705.22;5524276;26;20278;-71
2024/04/16 10:20:16;;;;;;;;;;;;;;;9.25;81.63;99704.06;5526235;26;19928;-68
2024/04/16 10:22:42;;;;;;;;;;;;;;;9.17;81.40;99696.13;5524328;26;20382;-66
2024/04/16 10:25:10;;;;;;;;;;;;;;;9.06;81.98;99709.84;5525298;26;19938;-68
2024/04/16 10:27:35;;;;;;;;;;;;;;;9.12;82.39;99703.00;5525561;26;19940;-68
2024/04/16 10:30:07;;;;;;;;;;;;;;;9.12;80.59;99703.81;5493192;26;20395;-70
2024/04/16 10:32:33;;;;;;;;;;;;;;;9.09;80.36;99703.34;5493621;26;19928;-69
2024/04/16 10:35:03;;;;;;;;;;;;;;;9.07;81.42;99700.06;5528575;26;19935;-70
2024/04/16 10:37:33;;;;;;;;;;;;;;;9.04;79.73;99700.41;5525727;25;19927;-70
2024/04/16 10:39:58;;;;;;;;;;;;;;;9.03;81.42;99701.41;5545776;25;19927;-69
2024/04/16 10:42:28;;;;;;;;;;;;;;;9.03;80.85;99699.59;5549884;25;20386;-67
2024/04/16 10:44:54;;;;;;;;;;;;;;;8.99;81.35;99699.13;5543385;25;20690;-69
2024/04/16 10:47:20;;;;;;;;;;;;;;;8.97;78.90;99706.44;5540699;25;20367;-68
2024/04/16 10:49:45;;;;;;;;;;;;;;;8.92;79.52;99698.16;5543589;25;19934;-68
2024/04/16 10:52:12;;;;;;;;;;;;;;;8.89;79.03;99700.34;5508018;26;20031;-70
2024/04/16 10:54:38;;;;;;;;;;;;;;;8.93;81.26;99710.44;5543816;25;19938;-70
2024/04/16 10:57:03;;;;;;;;;;;;;;;8.88;79.59;99710.16;5540023;25;20386;-69
2024/04/16 10:59:29;;;;;;;;;;;;;;;8.90;78.79;99716.09;5539019;25;19946;-69
2024/04/16 11:01:54;;;;;;;;;;;;;;;8.79;78.25;99710.38;5541326;25;19931;-69
2024/04/16 11:04:21;;;;;;;;;;;;;;;8.82;80.14;99718.00;5548320;25;19935;-69
2024/04/16 11:06:47;;;;;;;;;;;;;;;8.97;80.65;99721.56;5541477;25;19995;-69
2024/04/16 11:09:13;;;;;;;;;;;;;;;9.05;79.67;99723.31;5509977;25;19935;-69
2024/04/16 11:11:39;;;;;;;;;;;;;;;8.90;78.02;99726.72;5547945;25;20397;-72
2024/04/16 11:14:06;;;;;;;;;;;;;;;8.90;79.78;99731.22;5543082;25;19942;-70
2024/04/16 11:16:32;;;;;;;;;;;;;;;8.96;80.77;99725.19;5516045;25;20020;-67
2024/04/16 11:18:58;;;;;;;;;;;;;;;8.95;79.76;99740.28;5536311;25;19935;-69
2024/04/16 11:21:25;;;;;;;;;;;;;;;8.96;79.55;99731.34;5543067;25;19935;-69
2024/04/16 11:23:51;;;;;;;;;;;;;;;8.93;79.08;99734.34;5536232;25;19995;-72
2024/04/16 11:26:16;;;;;;;;;;;;;;;8.91;79.79;99743.47;5546828;25;19971;-69
2024/04/16 11:28:41;;;;;;;;;;;;;;;8.97;79.87;99740.16;5508520;25;20407;-69
2024/04/16 11:31:07;;;;;;;;;;;;;;;8.95;79.78;99737.63;5546709;25;20378;-67
2024/04/16 11:33:35;;;;;;;;;;;;;;;9.00;80.15;99737.97;5540844;25;19933;-67
2024/04/16 11:36:08;;;;;;;;;;;;;;;9.06;80.91;99744.38;5546808;25;20368;-70
2024/04/16 11:38:34;;;;;;;;;;;;;;;9.15;81.51;99745.13;5544461;25;19927;-68
2024/04/16 11:41:00;;;;;;;;;;;;;;;9.12;79.10;99741.00;5537413;25;20381;-67
2024/04/16 11:43:31;;;;;;;;;;;;;;;9.09;79.67;99745.84;5507038;25;21638;-69
2024/04/16 11:45:57;;;;;;;;;;;;;;;9.14;78.63;99748.81;5541691;25;19934;-72
2024/04/16 11:48:23;;;;;;;;;;;;;;;9.17;77.19;99751.91;5536956;25;19927;-68
2024/04/16 11:50:48;;;;;;;;;;;;;;;9.13;77.48;99747.97;5543424;25;19926;-70
2024/04/16 11:53:13;;;;;;;;;;;;;;;9.24;77.31;99747.53;5537699;25;19928;-69
2024/04/16 11:55:39;;;;;;;;;;;;;;;9.39;75.88;99752.91;5541063;25;19935;-71
2024/04/16 11:58:04;;;;;;;;;;;;;;;9.47;75.15;99752.00;5542014;25;19934;-70
2024/04/16 12:00:29;;;;;;;;;;;;;;;9.43;73.18;99748.88;5539153;25;20289;-69
2024/04/16 12:02:55;;;;;;;;;;;;;;;9.42;73.65;99747.25;5504076;25;19927;-69
2024/04/16 12:05:20;;;;;;;;;;;;;;;9.42;74.04;99752.56;5540788;25;20394;-68
2024/04/16 12:07:47;;;;;;;;;;;;;;;9.26;76.19;99742.06;5543900;25;19934;-70
2024/04/16 12:10:14;;;;;;;;;;;;;;;9.22;77.22;99746.06;5555433;25;20385;-69
2024/04/16 12:12:39;;;;;;;;;;;;;;;9.25;78.32;99749.22;5543519;25;20393;-68
2024/04/16 12:15:05;;;;;;;;;;;;;;;9.36;77.53;99747.13;5544200;25;20362;-70
2024/04/16 12:17:30;;;;;;;;;;;;;;;9.35;77.79;99740.16;5508783;25;19934;-67
2024/04/16 12:19:55;;;;;;;;;;;;;;;9.59;78.31;99738.13;5507844;25;19938;-69
2024/04/16 12:22:21;;;;;;;;;;;;;;;9.75;78.45;99734.44;5507281;25;20277;-69
2024/04/16 12:24:46;;;;;;;;;;;;;;;9.81;77.89;99738.22;5542977;25;19934;-69
2024/04/16 12:27:11;;;;;;;;;;;;;;;10.02;77.30;99738.31;5538100;25;19928;-71
2024/04/16 12:29:37;;;;;;;;;;;;;;;10.29;76.66;99738.69;5503593;25;19939;-71
2024/04/16 12:32:02;;;;;;;;;;;;;;;10.27;74.12;99732.75;5525592;25;19934;-70
2024/04/16 12:34:27;;;;;;;;;;;;;;;10.26;74.09;99739.91;5505282;25;19975;-69
2024/04/16 12:36:54;;;;;;;;;;;;;;;10.47;73.30;99736.47;5559362;25;19934;-72
2024/04/16 12:39:20;;;;;;;;;;;;;;;10.64;72.08;99727.25;5542613;25;19976;-72
2024/04/16 12:41:46;;;;;;;;;;;;;;;10.87;70.11;99721.75;5500331;26;20398;-69
2024/04/16 12:44:12;;;;;;;;;;;;;;;10.95;71.17;99723.44;5541988;25;19927;-71
2024/04/16 12:46:43;;;;;;;;;;;;;;;10.98;69.83;99728.41;5536111;25;19990;-72